sensor_id;sensor_type;location;lat;lon;timestamp;temperature;humidity
60293;DHT22;52402;52.670;6.750;2023-02-15T00:01:52;1.20;99.90
60293;DHT22;52402;52.670;6.750;2023-02-15T00:04:20;1.10;99.90
60293;DHT22;52402;52.670;6.750;2023-02-15T00:06:46;1.20;99.90
60293;DHT22;52402;52.670;6.750;2023-02-15T00:09:13;1.10;99.90
60293;DHT22;52402;52.670;6.750;2023-02-15T00:11:38;1.10;99.90
60293;DHT22;52402;52.670;6.750;2023-02-15T00:14:21;1.00;99.90
60293;DHT22;52402;52.670;6.750;2023-02-15T00:16:49;1.00;99.90
60293;DHT22;52402;52.670;6.750;2023-02-15T00:19:17;1.00;99.90
60293;DHT22;52402;52.670;6.750;2023-02-15T00:21:44;1.00;99.90
60293;DHT22;52402;52.670;6.750;2023-02-15T00:24:12;1.00;99.90
60293;DHT22;52402;52.670;6.750;2023-02-15T00:26:39;1.00;99.90
60293;DHT22;52402;52.670;6.750;2023-02-15T00:29:05;1.00;99.90
60293;DHT22;52402;52.670;6.750;2023-02-15T00:31:32;1.00;99.90
60293;DHT22;52402;52.670;6.750;2023-02-15T00:34:05;1.00;99.90
60293;DHT22;52402;52.670;6.750;2023-02-15T00:36:31;1.00;99.90
60293;DHT22;52402;52.670;6.750;2023-02-15T00:38:57;0.90;99.90
60293;DHT22;52402;52.670;6.750;2023-02-15T00:41:23;0.90;99.90
60293;DHT22;52402;52.670;6.750;2023-02-15T00:43:48;0.90;99.90
60293;DHT22;52402;52.670;6.750;2023-02-15T00:46:14;0.90;99.90
60293;DHT22;52402;52.670;6.750;2023-02-15T00:48:40;0.80;99.90
60293;DHT22;52402;52.670;6.750;2023-02-15T00:51:06;0.80;99.90
60293;DHT22;52402;52.670;6.750;2023-02-15T00:53:31;0.80;99.90
60293;DHT22;52402;52.670;6.750;2023-02-15T00:55:58;0.70;99.90
60293;DHT22;52402;52.670;6.750;2023-02-15T00:58:24;0.80;99.90
60293;DHT22;52402;52.670;6.750;2023-02-15T01:00:50;0.80;99.90
60293;DHT22;52402;52.670;6.750;2023-02-15T01:03:17;0.80;99.90
60293;DHT22;52402;52.670;6.750;2023-02-15T01:05:43;0.80;99.90
60293;DHT22;52402;52.670;6.750;2023-02-15T01:08:09;0.80;99.90
60293;DHT22;52402;52.670;6.750;2023-02-15T01:10:35;0.80;99.90
60293;DHT22;52402;52.670;6.750;2023-02-15T01:13:01;0.80;99.90
60293;DHT22;52402;52.670;6.750;2023-02-15T01:15:28;0.80;99.90
60293;DHT22;52402;52.670;6.750;2023-02-15T01:17:53;0.70;99.90
60293;DHT22;52402;52.670;6.750;2023-02-15T01:20:21;0.70;99.90
60293;DHT22;52402;52.670;6.750;2023-02-15T01:22:47;0.70;99.90
60293;DHT22;52402;52.670;6.750;2023-02-15T01:25:16;0.70;99.90
60293;DHT22;52402;52.670;6.750;2023-02-15T01:27:42;0.70;99.90
60293;DHT22;52402;52.670;6.750;2023-02-15T01:30:08;0.70;99.90
60293;DHT22;52402;52.670;6.750;2023-02-15T01:32:34;0.70;99.90
60293;DHT22;52402;52.670;6.750;2023-02-15T01:35:00;0.70;99.90
60293;DHT22;52402;52.670;6.750;2023-02-15T01:37:26;0.60;99.90
60293;DHT22;52402;52.670;6.750;2023-02-15T01:39:51;0.60;99.90
60293;DHT22;52402;52.670;6.750;2023-02-15T01:42:27;0.60;99.90
60293;DHT22;52402;52.670;6.750;2023-02-15T01:44:56;0.70;99.90
60293;DHT22;52402;52.670;6.750;2023-02-15T01:52:45;0.60;99.90
60293;DHT22;52402;52.670;6.750;2023-02-15T01:55:14;0.60;99.90
60293;DHT22;52402;52.670;6.750;2023-02-15T01:57:41;0.60;99.90
60293;DHT22;52402;52.670;6.750;2023-02-15T02:00:08;0.50;99.90
60293;DHT22;52402;52.670;6.750;2023-02-15T02:02:34;0.50;99.90
60293;DHT22;52402;52.670;6.750;2023-02-15T02:05:01;0.50;99.90
60293;DHT22;52402;52.670;6.750;2023-02-15T02:07:39;0.50;99.90
60293;DHT22;52402;52.670;6.750;2023-02-15T02:10:07;0.50;99.90
60293;DHT22;52402;52.670;6.750;2023-02-15T02:12:34;0.50;99.90
60293;DHT22;52402;52.670;6.750;2023-02-15T02:15:00;0.40;99.90
60293;DHT22;52402;52.670;6.750;2023-02-15T02:18:08;0.40;99.90
60293;DHT22;52402;52.670;6.750;2023-02-15T02:20:43;0.40;99.90
60293;DHT22;52402;52.670;6.750;2023-02-15T02:31:55;0.30;99.90
60293;DHT22;52402;52.670;6.750;2023-02-15T02:34:35;0.30;99.90
60293;DHT22;52402;52.670;6.750;2023-02-15T02:37:35;0.30;99.90
60293;DHT22;52402;52.670;6.750;2023-02-15T02:43:33;0.20;99.90
60293;DHT22;52402;52.670;6.750;2023-02-15T02:46:09;0.20;99.90
60293;DHT22;52402;52.670;6.750;2023-02-15T02:48:39;0.20;99.90
60293;DHT22;52402;52.670;6.750;2023-02-15T02:51:04;0.10;99.90
60293;DHT22;52402;52.670;6.750;2023-02-15T02:53:30;0.10;99.90
60293;DHT22;52402;52.670;6.750;2023-02-15T02:58:48;0.20;99.90
60293;DHT22;52402;52.670;6.750;2023-02-15T03:01:31;0.20;99.90
60293;DHT22;52402;52.670;6.750;2023-02-15T03:04:10;0.20;99.90
60293;DHT22;52402;52.670;6.750;2023-02-15T03:07:04;0.20;99.90
60293;DHT22;52402;52.670;6.750;2023-02-15T03:09:39;0.10;99.90
60293;DHT22;52402;52.670;6.750;2023-02-15T03:12:19;0.10;99.90
60293;DHT22;52402;52.670;6.750;2023-02-15T03:14:49;0.10;99.90
60293;DHT22;52402;52.670;6.750;2023-02-15T03:17:20;0.10;99.90
60293;DHT22;52402;52.670;6.750;2023-02-15T03:19:48;0.00;99.90
60293;DHT22;52402;52.670;6.750;2023-02-15T03:22:34;0.00;99.90
60293;DHT22;52402;52.670;6.750;2023-02-15T03:25:10;0.00;99.90
60293;DHT22;52402;52.670;6.750;2023-02-15T03:27:42;-0.10;99.90
60293;DHT22;52402;52.670;6.750;2023-02-15T03:30:09;-0.10;99.90
60293;DHT22;52402;52.670;6.750;2023-02-15T03:32:37;-0.20;99.90
60293;DHT22;52402;52.670;6.750;2023-02-15T03:35:04;-0.20;99.90
60293;DHT22;52402;52.670;6.750;2023-02-15T03:37:32;-0.20;99.90
60293;DHT22;52402;52.670;6.750;2023-02-15T03:40:21;-0.20;99.90
60293;DHT22;52402;52.670;6.750;2023-02-15T03:43:12;-0.10;99.90
60293;DHT22;52402;52.670;6.750;2023-02-15T03:45:40;-0.20;99.90
60293;DHT22;52402;52.670;6.750;2023-02-15T03:48:26;-0.20;99.90
60293;DHT22;52402;52.670;6.750;2023-02-15T03:51:00;-0.20;99.90
60293;DHT22;52402;52.670;6.750;2023-02-15T03:53:47;-0.20;99.90
60293;DHT22;52402;52.670;6.750;2023-02-15T03:56:13;-0.20;99.90
60293;DHT22;52402;52.670;6.750;2023-02-15T03:58:39;-0.20;99.90
60293;DHT22;52402;52.670;6.750;2023-02-15T04:04:37;-0.20;99.90
60293;DHT22;52402;52.670;6.750;2023-02-15T04:07:06;-0.30;99.90
60293;DHT22;52402;52.670;6.750;2023-02-15T04:09:32;-0.30;99.90
60293;DHT22;52402;52.670;6.750;2023-02-15T04:12:16;-0.30;99.90
60293;DHT22;52402;52.670;6.750;2023-02-15T04:14:42;-0.30;99.90
60293;DHT22;52402;52.670;6.750;2023-02-15T04:17:26;-0.30;99.90
60293;DHT22;52402;52.670;6.750;2023-02-15T04:19:51;-0.30;99.90
60293;DHT22;52402;52.670;6.750;2023-02-15T04:22:36;-0.30;99.90
60293;DHT22;52402;52.670;6.750;2023-02-15T04:25:20;-0.40;99.90
60293;DHT22;52402;52.670;6.750;2023-02-15T04:27:49;-0.40;99.90
60293;DHT22;52402;52.670;6.750;2023-02-15T04:30:16;-0.40;99.90
60293;DHT22;52402;52.670;6.750;2023-02-15T04:32:43;-0.40;99.90
60293;DHT22;52402;52.670;6.750;2023-02-15T04:35:09;-0.50;99.90
60293;DHT22;52402;52.670;6.750;2023-02-15T04:37:35;-0.50;99.90
60293;DHT22;52402;52.670;6.750;2023-02-15T04:40:02;-0.50;99.90
60293;DHT22;52402;52.670;6.750;2023-02-15T04:42:27;-0.50;99.90
60293;DHT22;52402;52.670;6.750;2023-02-15T04:44:54;-0.50;99.90
60293;DHT22;52402;52.670;6.750;2023-02-15T04:47:20;-0.50;99.90
60293;DHT22;52402;52.670;6.750;2023-02-15T04:49:46;-0.60;99.90
60293;DHT22;52402;52.670;6.750;2023-02-15T04:52:11;-0.60;99.90
60293;DHT22;52402;52.670;6.750;2023-02-15T04:54:37;-0.60;99.90
60293;DHT22;52402;52.670;6.750;2023-02-15T04:57:03;-0.60;99.90
60293;DHT22;52402;52.670;6.750;2023-02-15T04:59:29;-0.60;99.90
60293;DHT22;52402;52.670;6.750;2023-02-15T05:01:55;-0.70;99.90
60293;DHT22;52402;52.670;6.750;2023-02-15T05:04:20;-0.70;99.90
60293;DHT22;52402;52.670;6.750;2023-02-15T05:06:46;-0.70;99.90
60293;DHT22;52402;52.670;6.750;2023-02-15T05:09:12;-0.70;99.90
60293;DHT22;52402;52.670;6.750;2023-02-15T05:11:37;-0.80;99.90
60293;DHT22;52402;52.670;6.750;2023-02-15T05:14:04;-0.80;99.90
60293;DHT22;52402;52.670;6.750;2023-02-15T05:16:29;-0.70;99.90
60293;DHT22;52402;52.670;6.750;2023-02-15T05:18:55;-0.80;99.90
60293;DHT22;52402;52.670;6.750;2023-02-15T05:21:21;-0.80;99.90
60293;DHT22;52402;52.670;6.750;2023-02-15T05:23:46;-0.90;99.90
60293;DHT22;52402;52.670;6.750;2023-02-15T05:26:17;-0.80;99.90
60293;DHT22;52402;52.670;6.750;2023-02-15T05:29:02;-0.80;99.90
60293;DHT22;52402;52.670;6.750;2023-02-15T05:31:27;-0.90;99.90
60293;DHT22;52402;52.670;6.750;2023-02-15T05:33:53;-0.90;99.90
60293;DHT22;52402;52.670;6.750;2023-02-15T05:36:18;-0.90;99.90
60293;DHT22;52402;52.670;6.750;2023-02-15T05:38:44;-0.90;99.90
60293;DHT22;52402;52.670;6.750;2023-02-15T05:41:11;-0.90;99.90
60293;DHT22;52402;52.670;6.750;2023-02-15T05:43:37;-0.90;99.90
60293;DHT22;52402;52.670;6.750;2023-02-15T05:46:03;-1.00;99.90
60293;DHT22;52402;52.670;6.750;2023-02-15T05:48:29;-1.00;99.90
60293;DHT22;52402;52.670;6.750;2023-02-15T05:51:03;-1.00;99.90
60293;DHT22;52402;52.670;6.750;2023-02-15T05:53:30;-1.00;99.90
60293;DHT22;52402;52.670;6.750;2023-02-15T05:55:57;-1.00;99.90
60293;DHT22;52402;52.670;6.750;2023-02-15T05:58:31;-1.00;99.90
60293;DHT22;52402;52.670;6.750;2023-02-15T06:00:58;-1.00;99.90
60293;DHT22;52402;52.670;6.750;2023-02-15T06:03:24;-1.10;99.90
60293;DHT22;52402;52.670;6.750;2023-02-15T06:05:52;-1.00;99.90
60293;DHT22;52402;52.670;6.750;2023-02-15T06:08:18;-1.10;99.90
60293;DHT22;52402;52.670;6.750;2023-02-15T06:10:46;-1.10;99.90
60293;DHT22;52402;52.670;6.750;2023-02-15T06:13:12;-1.00;99.90
60293;DHT22;52402;52.670;6.750;2023-02-15T06:15:37;-1.10;99.90
60293;DHT22;52402;52.670;6.750;2023-02-15T06:18:03;-1.20;99.90
60293;DHT22;52402;52.670;6.750;2023-02-15T06:20:29;-1.10;99.90
60293;DHT22;52402;52.670;6.750;2023-02-15T06:22:54;-1.20;99.90
60293;DHT22;52402;52.670;6.750;2023-02-15T06:25:20;-1.20;99.90
60293;DHT22;52402;52.670;6.750;2023-02-15T06:27:45;-1.00;99.90
60293;DHT22;52402;52.670;6.750;2023-02-15T06:30:12;-1.10;99.90
60293;DHT22;52402;52.670;6.750;2023-02-15T06:32:37;-1.10;99.90
60293;DHT22;52402;52.670;6.750;2023-02-15T06:35:04;-1.10;99.90
60293;DHT22;52402;52.670;6.750;2023-02-15T06:37:29;-1.10;99.90
60293;DHT22;52402;52.670;6.750;2023-02-15T06:39:55;-1.10;99.90
60293;DHT22;52402;52.670;6.750;2023-02-15T06:42:21;-1.10;99.90
60293;DHT22;52402;52.670;6.750;2023-02-15T06:44:47;-1.00;99.90
60293;DHT22;52402;52.670;6.750;2023-02-15T06:47:13;-1.10;99.90
60293;DHT22;52402;52.670;6.750;2023-02-15T06:49:38;-1.10;99.90
60293;DHT22;52402;52.670;6.750;2023-02-15T06:52:04;-1.10;99.90
60293;DHT22;52402;52.670;6.750;2023-02-15T06:54:30;-1.10;99.90
60293;DHT22;52402;52.670;6.750;2023-02-15T06:56:56;-1.10;99.90
60293;DHT22;52402;52.670;6.750;2023-02-15T06:59:21;-1.10;99.90
60293;DHT22;52402;52.670;6.750;2023-02-15T07:01:47;-1.10;99.90
60293;DHT22;52402;52.670;6.750;2023-02-15T07:04:14;-1.10;99.90
60293;DHT22;52402;52.670;6.750;2023-02-15T07:06:40;-1.00;99.90
60293;DHT22;52402;52.670;6.750;2023-02-15T07:09:05;-1.00;99.90
60293;DHT22;52402;52.670;6.750;2023-02-15T07:11:31;-1.00;99.90
60293;DHT22;52402;52.670;6.750;2023-02-15T07:14:15;-1.00;99.90
60293;DHT22;52402;52.670;6.750;2023-02-15T07:16:41;-1.00;99.90
60293;DHT22;52402;52.670;6.750;2023-02-15T07:19:06;-0.90;99.90
60293;DHT22;52402;52.670;6.750;2023-02-15T07:21:33;-0.90;99.90
60293;DHT22;52402;52.670;6.750;2023-02-15T07:23:59;-0.80;99.90
60293;DHT22;52402;52.670;6.750;2023-02-15T07:26:25;-0.80;99.90
60293;DHT22;52402;52.670;6.750;2023-02-15T07:28:51;-0.80;99.90
60293;DHT22;52402;52.670;6.750;2023-02-15T07:31:17;-0.70;99.90
60293;DHT22;52402;52.670;6.750;2023-02-15T07:33:42;-0.70;99.90
60293;DHT22;52402;52.670;6.750;2023-02-15T07:36:08;-0.60;99.90
60293;DHT22;52402;52.670;6.750;2023-02-15T07:38:38;-0.50;99.90
60293;DHT22;52402;52.670;6.750;2023-02-15T07:41:07;-0.50;99.90
60293;DHT22;52402;52.670;6.750;2023-02-15T07:43:34;-0.50;99.90
60293;DHT22;52402;52.670;6.750;2023-02-15T07:46:02;-0.50;99.90
60293;DHT22;52402;52.670;6.750;2023-02-15T07:48:27;-0.40;99.90
60293;DHT22;52402;52.670;6.750;2023-02-15T07:50:53;-0.40;99.90
60293;DHT22;52402;52.670;6.750;2023-02-15T07:53:19;-0.30;99.90
60293;DHT22;52402;52.670;6.750;2023-02-15T07:55:44;-0.20;99.90
60293;DHT22;52402;52.670;6.750;2023-02-15T07:58:10;-0.10;99.90
60293;DHT22;52402;52.670;6.750;2023-02-15T08:00:35;0.10;99.90
60293;DHT22;52402;52.670;6.750;2023-02-15T08:03:21;0.20;99.90
60293;DHT22;52402;52.670;6.750;2023-02-15T08:05:47;0.40;99.90
60293;DHT22;52402;52.670;6.750;2023-02-15T08:08:13;0.50;99.90
60293;DHT22;52402;52.670;6.750;2023-02-15T08:14:07;0.70;99.90
60293;DHT22;52402;52.670;6.750;2023-02-15T08:16:34;0.90;99.90
60293;DHT22;52402;52.670;6.750;2023-02-15T08:19:04;1.00;99.90
60293;DHT22;52402;52.670;6.750;2023-02-15T08:21:31;1.10;99.90
60293;DHT22;52402;52.670;6.750;2023-02-15T08:23:58;1.20;99.90
60293;DHT22;52402;52.670;6.750;2023-02-15T08:26:24;1.30;99.90
60293;DHT22;52402;52.670;6.750;2023-02-15T08:28:51;1.40;99.90
60293;DHT22;52402;52.670;6.750;2023-02-15T08:31:17;1.50;99.90
60293;DHT22;52402;52.670;6.750;2023-02-15T08:33:44;1.60;99.90
60293;DHT22;52402;52.670;6.750;2023-02-15T08:36:13;1.70;99.90
60293;DHT22;52402;52.670;6.750;2023-02-15T08:38:39;1.90;99.90
60293;DHT22;52402;52.670;6.750;2023-02-15T08:43:42;2.10;99.90
60293;DHT22;52402;52.670;6.750;2023-02-15T08:46:09;2.20;99.90
60293;DHT22;52402;52.670;6.750;2023-02-15T08:48:35;2.30;99.90
60293;DHT22;52402;52.670;6.750;2023-02-15T08:51:16;2.40;99.90
60293;DHT22;52402;52.670;6.750;2023-02-15T08:53:45;2.50;99.90
60293;DHT22;52402;52.670;6.750;2023-02-15T08:56:11;2.60;99.90
60293;DHT22;52402;52.670;6.750;2023-02-15T08:58:37;2.70;99.90
60293;DHT22;52402;52.670;6.750;2023-02-15T09:01:15;2.80;99.90
60293;DHT22;52402;52.670;6.750;2023-02-15T09:03:44;2.90;99.90
60293;DHT22;52402;52.670;6.750;2023-02-15T09:06:10;2.90;99.90
60293;DHT22;52402;52.670;6.750;2023-02-15T09:08:36;3.10;99.90
60293;DHT22;52402;52.670;6.750;2023-02-15T09:11:08;3.20;99.90
60293;DHT22;52402;52.670;6.750;2023-02-15T09:13:34;3.40;99.90
60293;DHT22;52402;52.670;6.750;2023-02-15T09:16:03;3.40;99.90
60293;DHT22;52402;52.670;6.750;2023-02-15T09:18:31;3.60;99.90
60293;DHT22;52402;52.670;6.750;2023-02-15T09:21:04;3.70;99.90
60293;DHT22;52402;52.670;6.750;2023-02-15T09:23:30;3.70;99.90
60293;DHT22;52402;52.670;6.750;2023-02-15T09:25:55;3.80;99.90
60293;DHT22;52402;52.670;6.750;2023-02-15T09:28:21;3.90;99.90
60293;DHT22;52402;52.670;6.750;2023-02-15T09:30:46;4.00;99.90
60293;DHT22;52402;52.670;6.750;2023-02-15T09:33:12;4.10;99.90
60293;DHT22;52402;52.670;6.750;2023-02-15T09:35:37;4.20;99.90
60293;DHT22;52402;52.670;6.750;2023-02-15T09:38:03;4.30;99.90
60293;DHT22;52402;52.670;6.750;2023-02-15T09:40:35;4.40;99.90
60293;DHT22;52402;52.670;6.750;2023-02-15T09:43:14;4.50;99.90
60293;DHT22;52402;52.670;6.750;2023-02-15T09:46:08;4.60;99.90
60293;DHT22;52402;52.670;6.750;2023-02-15T09:48:40;4.80;99.90
60293;DHT22;52402;52.670;6.750;2023-02-15T09:53:54;5.00;99.90
60293;DHT22;52402;52.670;6.750;2023-02-15T10:07:32;5.40;99.90
60293;DHT22;52402;52.670;6.750;2023-02-15T10:21:34;5.80;99.90
60293;DHT22;52402;52.670;6.750;2023-02-15T10:24:22;5.90;99.90
60293;DHT22;52402;52.670;6.750;2023-02-15T10:26:50;5.90;99.90
60293;DHT22;52402;52.670;6.750;2023-02-15T10:32:20;6.10;99.90
60293;DHT22;52402;52.670;6.750;2023-02-15T10:35:08;6.20;99.90
60293;DHT22;52402;52.670;6.750;2023-02-15T10:37:47;6.40;99.90
60293;DHT22;52402;52.670;6.750;2023-02-15T10:45:58;6.60;99.90
60293;DHT22;52402;52.670;6.750;2023-02-15T10:48:34;6.70;99.90
60293;DHT22;52402;52.670;6.750;2023-02-15T10:51:10;6.70;99.90
60293;DHT22;52402;52.670;6.750;2023-02-15T11:08:16;7.50;99.90
60293;DHT22;52402;52.670;6.750;2023-02-15T11:13:16;7.70;99.90
60293;DHT22;52402;52.670;6.750;2023-02-15T11:15:51;7.80;99.90
60293;DHT22;52402;52.670;6.750;2023-02-15T11:18:28;7.90;99.90
60293;DHT22;52402;52.670;6.750;2023-02-15T11:21:23;8.00;99.90
60293;DHT22;52402;52.670;6.750;2023-02-15T11:23:51;8.10;99.90
60293;DHT22;52402;52.670;6.750;2023-02-15T11:26:27;8.20;99.90
60293;DHT22;52402;52.670;6.750;2023-02-15T11:31:44;8.40;99.90
60293;DHT22;52402;52.670;6.750;2023-02-15T11:36:49;8.50;99.90
60293;DHT22;52402;52.670;6.750;2023-02-15T11:39:17;8.60;99.90
60293;DHT22;52402;52.670;6.750;2023-02-15T11:41:53;8.70;99.90
60293;DHT22;52402;52.670;6.750;2023-02-15T11:44:41;8.80;99.90
60293;DHT22;52402;52.670;6.750;2023-02-15T11:47:11;8.90;99.90
60293;DHT22;52402;52.670;6.750;2023-02-15T11:49:38;9.00;99.90
60293;DHT22;52402;52.670;6.750;2023-02-15T11:52:12;9.20;99.90
60293;DHT22;52402;52.670;6.750;2023-02-15T11:54:41;9.20;99.90
60293;DHT22;52402;52.670;6.750;2023-02-15T11:57:28;9.40;99.90
60293;DHT22;52402;52.670;6.750;2023-02-15T12:00:34;9.40;99.90
60293;DHT22;52402;52.670;6.750;2023-02-15T12:03:26;9.50;99.90
60293;DHT22;52402;52.670;6.750;2023-02-15T12:05:53;9.60;99.90
60293;DHT22;52402;52.670;6.750;2023-02-15T12:08:22;9.70;99.90
60293;DHT22;52402;52.670;6.750;2023-02-15T12:11:02;9.80;99.90
60293;DHT22;52402;52.670;6.750;2023-02-15T12:13:29;9.90;99.90
60293;DHT22;52402;52.670;6.750;2023-02-15T12:15:57;9.90;99.90
60293;DHT22;52402;52.670;6.750;2023-02-15T12:18:32;10.00;99.90
60293;DHT22;52402;52.670;6.750;2023-02-15T12:21:03;10.10;99.90
60293;DHT22;52402;52.670;6.750;2023-02-15T12:23:32;10.20;99.90
60293;DHT22;52402;52.670;6.750;2023-02-15T12:25:58;10.30;99.90
60293;DHT22;52402;52.670;6.750;2023-02-15T12:28:30;10.40;99.90
60293;DHT22;52402;52.670;6.750;2023-02-15T12:30:57;10.40;99.90
60293;DHT22;52402;52.670;6.750;2023-02-15T12:33:26;10.50;99.90
60293;DHT22;52402;52.670;6.750;2023-02-15T12:35:59;10.50;99.90
60293;DHT22;52402;52.670;6.750;2023-02-15T12:38:26;10.60;99.90
60293;DHT22;52402;52.670;6.750;2023-02-15T12:41:21;10.70;99.90
60293;DHT22;52402;52.670;6.750;2023-02-15T12:43:47;10.80;99.90
60293;DHT22;52402;52.670;6.750;2023-02-15T12:46:23;10.80;99.90
60293;DHT22;52402;52.670;6.750;2023-02-15T12:49:16;10.80;99.90
60293;DHT22;52402;52.670;6.750;2023-02-15T12:51:54;10.90;99.90
60293;DHT22;52402;52.670;6.750;2023-02-15T12:54:37;10.90;99.90
60293;DHT22;52402;52.670;6.750;2023-02-15T12:57:28;11.00;99.90
60293;DHT22;52402;52.670;6.750;2023-02-15T13:02:30;11.00;99.90
60293;DHT22;52402;52.670;6.750;2023-02-15T13:04:57;11.10;99.90
60293;DHT22;52402;52.670;6.750;2023-02-15T13:07:30;11.10;99.90
60293;DHT22;52402;52.670;6.750;2023-02-15T13:09:57;11.20;99.90
60293;DHT22;52402;52.670;6.750;2023-02-15T13:12:26;11.20;99.90
60293;DHT22;52402;52.670;6.750;2023-02-15T13:14:54;11.20;99.90
60293;DHT22;52402;52.670;6.750;2023-02-15T13:17:31;11.20;99.90
60293;DHT22;52402;52.670;6.750;2023-02-15T13:20:09;11.20;99.90
60293;DHT22;52402;52.670;6.750;2023-02-15T13:22:45;11.20;99.90
60293;DHT22;52402;52.670;6.750;2023-02-15T13:27:39;11.20;99.90
60293;DHT22;52402;52.670;6.750;2023-02-15T13:30:28;11.10;99.90
60293;DHT22;52402;52.670;6.750;2023-02-15T13:33:19;11.10;99.90
60293;DHT22;52402;52.670;6.750;2023-02-15T13:38:36;11.10;99.90
60293;DHT22;52402;52.670;6.750;2023-02-15T13:44:23;11.30;99.90
60293;DHT22;52402;52.670;6.750;2023-02-15T13:47:06;11.30;99.90
60293;DHT22;52402;52.670;6.750;2023-02-15T13:52:27;11.40;99.90
60293;DHT22;52402;52.670;6.750;2023-02-15T13:58:02;11.60;99.90
60293;DHT22;52402;52.670;6.750;2023-02-15T14:03:56;11.70;99.90
60293;DHT22;52402;52.670;6.750;2023-02-15T14:09:13;11.70;99.90
60293;DHT22;52402;52.670;6.750;2023-02-15T14:14:44;11.70;99.90
60293;DHT22;52402;52.670;6.750;2023-02-15T14:17:44;11.70;99.90
60293;DHT22;52402;52.670;6.750;2023-02-15T14:20:25;11.70;99.90
60293;DHT22;52402;52.670;6.750;2023-02-15T14:23:16;11.60;99.90
60293;DHT22;52402;52.670;6.750;2023-02-15T14:25:55;11.60;99.90
60293;DHT22;52402;52.670;6.750;2023-02-15T14:31:09;11.40;99.90
60293;DHT22;52402;52.670;6.750;2023-02-15T14:33:41;11.40;99.90
60293;DHT22;52402;52.670;6.750;2023-02-15T14:36:13;11.30;99.90
60293;DHT22;52402;52.670;6.750;2023-02-15T14:42:25;11.20;99.90
60293;DHT22;52402;52.670;6.750;2023-02-15T14:47:34;11.20;99.90
60293;DHT22;52402;52.670;6.750;2023-02-15T14:53:15;11.20;99.90
60293;DHT22;52402;52.670;6.750;2023-02-15T14:55:40;11.20;99.90
60293;DHT22;52402;52.670;6.750;2023-02-15T14:58:11;11.20;99.90
60293;DHT22;52402;52.670;6.750;2023-02-15T15:00:38;11.20;99.90
60293;DHT22;52402;52.670;6.750;2023-02-15T15:03:18;11.10;99.90
60293;DHT22;52402;52.670;6.750;2023-02-15T15:05:54;11.10;99.90
60293;DHT22;52402;52.670;6.750;2023-02-15T15:08:31;11.00;99.90
60293;DHT22;52402;52.670;6.750;2023-02-15T15:13:59;11.00;99.90
60293;DHT22;52402;52.670;6.750;2023-02-15T15:18:55;10.90;99.90
60293;DHT22;52402;52.670;6.750;2023-02-15T15:49:32;10.30;99.90
60293;DHT22;52402;52.670;6.750;2023-02-15T15:52:12;10.20;99.90
60293;DHT22;52402;52.670;6.750;2023-02-15T15:54:40;10.20;99.90
60293;DHT22;52402;52.670;6.750;2023-02-15T15:57:17;10.10;99.90
60293;DHT22;52402;52.670;6.750;2023-02-15T15:59:45;10.10;99.90
60293;DHT22;52402;52.670;6.750;2023-02-15T16:02:14;10.00;99.90
60293;DHT22;52402;52.670;6.750;2023-02-15T16:04:41;10.00;99.90
60293;DHT22;52402;52.670;6.750;2023-02-15T16:09:59;9.80;99.90
60293;DHT22;52402;52.670;6.750;2023-02-15T16:12:29;9.80;99.90
60293;DHT22;52402;52.670;6.750;2023-02-15T16:14:56;9.70;99.90
60293;DHT22;52402;52.670;6.750;2023-02-15T16:17:26;9.60;99.90
60293;DHT22;52402;52.670;6.750;2023-02-15T16:20:03;9.50;99.90
60293;DHT22;52402;52.670;6.750;2023-02-15T16:22:32;9.50;99.90
60293;DHT22;52402;52.670;6.750;2023-02-15T16:27:50;9.40;99.90
60293;DHT22;52402;52.670;6.750;2023-02-15T16:30:21;9.30;99.90
60293;DHT22;52402;52.670;6.750;2023-02-15T16:32:47;9.30;99.90
60293;DHT22;52402;52.670;6.750;2023-02-15T16:35:16;9.20;99.90
60293;DHT22;52402;52.670;6.750;2023-02-15T16:37:42;9.10;99.90
60293;DHT22;52402;52.670;6.750;2023-02-15T16:43:35;9.10;99.90
60293;DHT22;52402;52.670;6.750;2023-02-15T16:45:36;9.10;99.90
60293;DHT22;52402;52.670;6.750;2023-02-15T16:48:08;9.00;99.90
60293;DHT22;52402;52.670;6.750;2023-02-15T16:50:36;9.00;99.90
60293;DHT22;52402;52.670;6.750;2023-02-15T16:53:04;8.90;99.90
60293;DHT22;52402;52.670;6.750;2023-02-15T16:55:37;8.90;99.90
60293;DHT22;52402;52.670;6.750;2023-02-15T16:58:05;8.90;99.90
60293;DHT22;52402;52.670;6.750;2023-02-15T17:00:35;8.80;99.90
60293;DHT22;52402;52.670;6.750;2023-02-15T17:05:48;8.70;99.90
60293;DHT22;52402;52.670;6.750;2023-02-15T17:10:44;8.60;99.90
60293;DHT22;52402;52.670;6.750;2023-02-15T17:13:13;8.60;99.90
60293;DHT22;52402;52.670;6.750;2023-02-15T17:15:46;8.50;99.90
60293;DHT22;52402;52.670;6.750;2023-02-15T17:18:47;8.50;99.90
60293;DHT22;52402;52.670;6.750;2023-02-15T17:21:17;8.50;99.90
60293;DHT22;52402;52.670;6.750;2023-02-15T17:23:46;8.40;99.90
60293;DHT22;52402;52.670;6.750;2023-02-15T17:26:17;8.40;99.90
60293;DHT22;52402;52.670;6.750;2023-02-15T17:29:09;8.40;99.90
60293;DHT22;52402;52.670;6.750;2023-02-15T17:31:36;8.30;99.90
60293;DHT22;52402;52.670;6.750;2023-02-15T17:34:02;8.30;99.90
60293;DHT22;52402;52.670;6.750;2023-02-15T17:36:30;8.20;99.90
60293;DHT22;52402;52.670;6.750;2023-02-15T17:41:25;8.30;99.90
60293;DHT22;52402;52.670;6.750;2023-02-15T17:43:51;8.20;99.90
60293;DHT22;52402;52.670;6.750;2023-02-15T17:46:17;8.20;99.90
60293;DHT22;52402;52.670;6.750;2023-02-15T17:48:46;8.10;99.90
60293;DHT22;52402;52.670;6.750;2023-02-15T17:51:13;8.10;99.90
60293;DHT22;52402;52.670;6.750;2023-02-15T17:53:39;8.10;99.90
60293;DHT22;52402;52.670;6.750;2023-02-15T17:56:05;8.10;99.90
60293;DHT22;52402;52.670;6.750;2023-02-15T17:58:38;8.10;99.90
60293;DHT22;52402;52.670;6.750;2023-02-15T18:01:14;8.00;99.90
60293;DHT22;52402;52.670;6.750;2023-02-15T18:04:00;8.00;99.90
60293;DHT22;52402;52.670;6.750;2023-02-15T18:06:45;7.90;99.90
60293;DHT22;52402;52.670;6.750;2023-02-15T18:09:29;7.90;99.90
60293;DHT22;52402;52.670;6.750;2023-02-15T18:12:25;7.90;99.90
60293;DHT22;52402;52.670;6.750;2023-02-15T18:14:52;7.90;99.90
60293;DHT22;52402;52.670;6.750;2023-02-15T18:17:27;7.90;99.90
60293;DHT22;52402;52.670;6.750;2023-02-15T18:19:54;7.80;99.90
60293;DHT22;52402;52.670;6.750;2023-02-15T18:22:20;7.80;99.90
60293;DHT22;52402;52.670;6.750;2023-02-15T18:24:47;7.80;99.90
60293;DHT22;52402;52.670;6.750;2023-02-15T18:27:14;7.70;99.90
60293;DHT22;52402;52.670;6.750;2023-02-15T18:29:39;7.70;99.90
60293;DHT22;52402;52.670;6.750;2023-02-15T18:32:18;7.70;99.90
60293;DHT22;52402;52.670;6.750;2023-02-15T18:34:47;7.60;99.90
60293;DHT22;52402;52.670;6.750;2023-02-15T18:37:17;7.60;99.90
60293;DHT22;52402;52.670;6.750;2023-02-15T18:39:49;7.50;99.90
60293;DHT22;52402;52.670;6.750;2023-02-15T18:42:26;7.50;99.90
60293;DHT22;52402;52.670;6.750;2023-02-15T18:44:56;7.50;99.90
60293;DHT22;52402;52.670;6.750;2023-02-15T18:47:23;7.50;99.90
60293;DHT22;52402;52.670;6.750;2023-02-15T18:49:48;7.40;99.90
60293;DHT22;52402;52.670;6.750;2023-02-15T18:52:34;7.40;99.90
60293;DHT22;52402;52.670;6.750;2023-02-15T18:55:19;7.40;99.90
60293;DHT22;52402;52.670;6.750;2023-02-15T18:57:46;7.40;99.90